sensor_id;sensor_type;location;lat;lon;timestamp;temperature;humidity
12156;DHT22;6141;49.092;8.516;2023-07-08T00:02:15;25.90;12.50
12156;DHT22;6141;49.092;8.516;2023-07-08T00:04:44;26.10;12.40
12156;DHT22;6141;49.092;8.516;2023-07-08T00:07:16;26.10;12.60
12156;DHT22;6141;49.092;8.516;2023-07-08T00:09:46;25.90;12.40
12156;DHT22;6141;49.092;8.516;2023-07-08T00:12:14;25.70;13.10
12156;DHT22;6141;49.092;8.516;2023-07-08T00:14:42;25.40;13.10
12156;DHT22;6141;49.092;8.516;2023-07-08T00:17:11;25.40;13.30
12156;DHT22;6141;49.092;8.516;2023-07-08T00:19:40;25.10;14.00
12156;DHT22;6141;49.092;8.516;2023-07-08T00:22:12;24.80;13.90
12156;DHT22;6141;49.092;8.516;2023-07-08T00:24:42;24.70;13.70
12156;DHT22;6141;49.092;8.516;2023-07-08T00:27:11;24.70;14.90
12156;DHT22;6141;49.092;8.516;2023-07-08T00:29:39;24.60;13.70
12156;DHT22;6141;49.092;8.516;2023-07-08T00:32:13;24.60;14.00
12156;DHT22;6141;49.092;8.516;2023-07-08T00:34:42;24.70;13.60
12156;DHT22;6141;49.092;8.516;2023-07-08T00:37:12;24.50;14.60
12156;DHT22;6141;49.092;8.516;2023-07-08T00:39:41;24.40;13.60
12156;DHT22;6141;49.092;8.516;2023-07-08T00:42:16;24.40;14.80
12156;DHT22;6141;49.092;8.516;2023-07-08T00:44:45;24.40;13.50
12156;DHT22;6141;49.092;8.516;2023-07-08T00:47:14;24.20;13.90
12156;DHT22;6141;49.092;8.516;2023-07-08T00:49:45;24.10;13.80
12156;DHT22;6141;49.092;8.516;2023-07-08T00:52:19;23.90;14.90
12156;DHT22;6141;49.092;8.516;2023-07-08T00:54:49;23.90;14.60
12156;DHT22;6141;49.092;8.516;2023-07-08T00:57:17;24.00;15.00
12156;DHT22;6141;49.092;8.516;2023-07-08T00:59:49;24.00;15.90
12156;DHT22;6141;49.092;8.516;2023-07-08T01:02:22;23.80;15.50
12156;DHT22;6141;49.092;8.516;2023-07-08T01:04:55;23.80;14.30
12156;DHT22;6141;49.092;8.516;2023-07-08T01:07:26;23.80;15.10
12156;DHT22;6141;49.092;8.516;2023-07-08T01:10:00;23.80;16.10
12156;DHT22;6141;49.092;8.516;2023-07-08T01:12:33;23.90;14.80
12156;DHT22;6141;49.092;8.516;2023-07-08T01:15:03;23.90;14.20
12156;DHT22;6141;49.092;8.516;2023-07-08T01:17:32;23.70;15.40
12156;DHT22;6141;49.092;8.516;2023-07-08T01:20:01;23.70;15.80
12156;DHT22;6141;49.092;8.516;2023-07-08T01:22:36;24.00;16.00
12156;DHT22;6141;49.092;8.516;2023-07-08T01:25:05;24.20;16.30
12156;DHT22;6141;49.092;8.516;2023-07-08T01:27:36;24.00;16.60
12156;DHT22;6141;49.092;8.516;2023-07-08T01:30:06;23.90;16.60
12156;DHT22;6141;49.092;8.516;2023-07-08T01:32:36;23.90;16.60
12156;DHT22;6141;49.092;8.516;2023-07-08T01:35:08;23.70;16.40
12156;DHT22;6141;49.092;8.516;2023-07-08T01:37:42;23.70;16.20
12156;DHT22;6141;49.092;8.516;2023-07-08T01:40:25;23.70;16.40
12156;DHT22;6141;49.092;8.516;2023-07-08T01:42:54;23.70;16.40
12156;DHT22;6141;49.092;8.516;2023-07-08T01:45:26;23.60;17.20
12156;DHT22;6141;49.092;8.516;2023-07-08T01:47:59;23.50;16.40
12156;DHT22;6141;49.092;8.516;2023-07-08T01:50:27;23.40;16.10
12156;DHT22;6141;49.092;8.516;2023-07-08T01:52:59;23.30;17.20
12156;DHT22;6141;49.092;8.516;2023-07-08T01:55:28;23.20;17.30
12156;DHT22;6141;49.092;8.516;2023-07-08T01:57:57;23.00;17.50
12156;DHT22;6141;49.092;8.516;2023-07-08T02:00:25;23.20;17.00
12156;DHT22;6141;49.092;8.516;2023-07-08T02:02:53;22.90;15.80
12156;DHT22;6141;49.092;8.516;2023-07-08T02:05:22;23.10;16.30
12156;DHT22;6141;49.092;8.516;2023-07-08T02:07:50;23.00;16.60
12156;DHT22;6141;49.092;8.516;2023-07-08T02:10:20;22.80;15.70
12156;DHT22;6141;49.092;8.516;2023-07-08T02:12:48;22.60;16.30
12156;DHT22;6141;49.092;8.516;2023-07-08T02:15:16;22.60;16.50
12156;DHT22;6141;49.092;8.516;2023-07-08T02:17:44;22.70;15.70
12156;DHT22;6141;49.092;8.516;2023-07-08T02:20:13;22.70;15.60
12156;DHT22;6141;49.092;8.516;2023-07-08T02:22:41;22.80;15.70
12156;DHT22;6141;49.092;8.516;2023-07-08T02:25:09;22.70;15.70
12156;DHT22;6141;49.092;8.516;2023-07-08T02:27:38;22.60;15.50
12156;DHT22;6141;49.092;8.516;2023-07-08T02:30:07;22.80;15.00
12156;DHT22;6141;49.092;8.516;2023-07-08T02:32:36;22.70;15.70
12156;DHT22;6141;49.092;8.516;2023-07-08T02:35:06;22.90;15.80
12156;DHT22;6141;49.092;8.516;2023-07-08T02:37:35;23.00;15.40
12156;DHT22;6141;49.092;8.516;2023-07-08T02:40:03;23.10;15.00
12156;DHT22;6141;49.092;8.516;2023-07-08T02:42:31;23.00;14.50
12156;DHT22;6141;49.092;8.516;2023-07-08T02:45:00;23.00;14.10
12156;DHT22;6141;49.092;8.516;2023-07-08T02:47:29;22.90;14.70
12156;DHT22;6141;49.092;8.516;2023-07-08T02:49:57;22.80;14.50
12156;DHT22;6141;49.092;8.516;2023-07-08T02:52:25;22.80;14.50
12156;DHT22;6141;49.092;8.516;2023-07-08T02:54:53;22.70;14.90
12156;DHT22;6141;49.092;8.516;2023-07-08T02:57:21;22.70;15.40
12156;DHT22;6141;49.092;8.516;2023-07-08T02:59:49;22.70;14.90
12156;DHT22;6141;49.092;8.516;2023-07-08T03:02:18;22.70;14.90
12156;DHT22;6141;49.092;8.516;2023-07-08T03:04:47;22.70;15.60
12156;DHT22;6141;49.092;8.516;2023-07-08T03:07:17;22.70;14.90
12156;DHT22;6141;49.092;8.516;2023-07-08T03:09:45;22.90;14.40
12156;DHT22;6141;49.092;8.516;2023-07-08T03:12:13;22.90;15.00
12156;DHT22;6141;49.092;8.516;2023-07-08T03:14:41;22.90;15.80
12156;DHT22;6141;49.092;8.516;2023-07-08T03:17:10;23.00;15.80
12156;DHT22;6141;49.092;8.516;2023-07-08T03:19:40;23.20;16.00
12156;DHT22;6141;49.092;8.516;2023-07-08T03:22:08;23.10;14.20
12156;DHT22;6141;49.092;8.516;2023-07-08T03:24:36;23.00;15.80
12156;DHT22;6141;49.092;8.516;2023-07-08T03:27:16;22.80;16.40
12156;DHT22;6141;49.092;8.516;2023-07-08T03:29:47;22.60;16.80
12156;DHT22;6141;49.092;8.516;2023-07-08T03:32:15;22.60;16.20
12156;DHT22;6141;49.092;8.516;2023-07-08T03:34:45;22.50;15.40
12156;DHT22;6141;49.092;8.516;2023-07-08T03:37:13;22.60;15.50
12156;DHT22;6141;49.092;8.516;2023-07-08T03:39:41;22.60;15.60
12156;DHT22;6141;49.092;8.516;2023-07-08T03:42:09;22.60;16.80
12156;DHT22;6141;49.092;8.516;2023-07-08T03:44:37;22.40;15.60
12156;DHT22;6141;49.092;8.516;2023-07-08T03:47:07;22.40;16.40
12156;DHT22;6141;49.092;8.516;2023-07-08T03:49:36;22.50;16.00
12156;DHT22;6141;49.092;8.516;2023-07-08T03:52:14;22.60;15.50
12156;DHT22;6141;49.092;8.516;2023-07-08T03:54:43;22.60;16.50
12156;DHT22;6141;49.092;8.516;2023-07-08T03:57:11;22.70;15.60
12156;DHT22;6141;49.092;8.516;2023-07-08T03:59:39;22.70;15.60
12156;DHT22;6141;49.092;8.516;2023-07-08T04:02:09;22.60;15.60
12156;DHT22;6141;49.092;8.516;2023-07-08T04:04:38;22.80;16.50
12156;DHT22;6141;49.092;8.516;2023-07-08T04:07:07;22.80;16.50
12156;DHT22;6141;49.092;8.516;2023-07-08T04:09:36;22.70;15.50
12156;DHT22;6141;49.092;8.516;2023-07-08T04:12:04;22.70;15.70
12156;DHT22;6141;49.092;8.516;2023-07-08T04:14:32;22.60;15.50
12156;DHT22;6141;49.092;8.516;2023-07-08T04:17:01;22.60;15.90
12156;DHT22;6141;49.092;8.516;2023-07-08T04:19:29;22.70;15.80
12156;DHT22;6141;49.092;8.516;2023-07-08T04:21:57;22.50;16.20
12156;DHT22;6141;49.092;8.516;2023-07-08T04:24:26;22.60;16.20
12156;DHT22;6141;49.092;8.516;2023-07-08T04:26:54;22.60;15.90
12156;DHT22;6141;49.092;8.516;2023-07-08T04:29:23;22.70;16.00
12156;DHT22;6141;49.092;8.516;2023-07-08T04:31:51;22.80;16.90
12156;DHT22;6141;49.092;8.516;2023-07-08T04:34:19;22.70;16.40
12156;DHT22;6141;49.092;8.516;2023-07-08T04:36:47;22.90;17.50
12156;DHT22;6141;49.092;8.516;2023-07-08T04:39:15;22.90;17.50
12156;DHT22;6141;49.092;8.516;2023-07-08T04:41:45;23.00;16.10
12156;DHT22;6141;49.092;8.516;2023-07-08T04:44:13;23.10;16.40
12156;DHT22;6141;49.092;8.516;2023-07-08T04:46:48;23.00;15.70
12156;DHT22;6141;49.092;8.516;2023-07-08T04:49:18;23.20;17.80
12156;DHT22;6141;49.092;8.516;2023-07-08T04:51:46;23.00;17.20
12156;DHT22;6141;49.092;8.516;2023-07-08T04:54:14;23.00;17.00
12156;DHT22;6141;49.092;8.516;2023-07-08T04:56:46;23.20;19.10
12156;DHT22;6141;49.092;8.516;2023-07-08T04:59:17;23.30;17.10
12156;DHT22;6141;49.092;8.516;2023-07-08T05:01:45;23.60;18.90
12156;DHT22;6141;49.092;8.516;2023-07-08T05:04:17;24.00;16.50
12156;DHT22;6141;49.092;8.516;2023-07-08T05:06:46;24.30;15.80
12156;DHT22;6141;49.092;8.516;2023-07-08T05:09:14;24.60;17.10
12156;DHT22;6141;49.092;8.516;2023-07-08T05:11:45;24.60;20.00
12156;DHT22;6141;49.092;8.516;2023-07-08T05:14:13;24.40;20.70
12156;DHT22;6141;49.092;8.516;2023-07-08T05:16:41;24.00;20.00
12156;DHT22;6141;49.092;8.516;2023-07-08T05:19:09;24.00;18.00
12156;DHT22;6141;49.092;8.516;2023-07-08T05:21:37;23.60;18.40
12156;DHT22;6141;49.092;8.516;2023-07-08T05:24:06;23.40;19.20
12156;DHT22;6141;49.092;8.516;2023-07-08T05:26:35;23.40;19.50
12156;DHT22;6141;49.092;8.516;2023-07-08T05:29:04;23.10;20.00
12156;DHT22;6141;49.092;8.516;2023-07-08T05:31:33;22.70;20.70
12156;DHT22;6141;49.092;8.516;2023-07-08T05:34:14;22.70;20.80
12156;DHT22;6141;49.092;8.516;2023-07-08T05:36:42;22.70;21.10
12156;DHT22;6141;49.092;8.516;2023-07-08T05:39:10;22.80;20.80
12156;DHT22;6141;49.092;8.516;2023-07-08T05:41:38;23.10;20.10
12156;DHT22;6141;49.092;8.516;2023-07-08T05:44:08;23.30;21.00
12156;DHT22;6141;49.092;8.516;2023-07-08T05:46:36;23.50;20.90
12156;DHT22;6141;49.092;8.516;2023-07-08T05:49:04;23.80;20.20
12156;DHT22;6141;49.092;8.516;2023-07-08T05:51:34;23.90;20.00
12156;DHT22;6141;49.092;8.516;2023-07-08T05:54:02;24.10;19.10
12156;DHT22;6141;49.092;8.516;2023-07-08T05:56:30;24.30;20.40
12156;DHT22;6141;49.092;8.516;2023-07-08T05:58:58;24.20;18.30
12156;DHT22;6141;49.092;8.516;2023-07-08T06:01:27;24.10;18.60
12156;DHT22;6141;49.092;8.516;2023-07-08T06:03:56;24.40;19.10
12156;DHT22;6141;49.092;8.516;2023-07-08T06:06:25;24.70;19.10
12156;DHT22;6141;49.092;8.516;2023-07-08T06:08:55;24.90;18.40
12156;DHT22;6141;49.092;8.516;2023-07-08T06:11:23;24.90;17.30
12156;DHT22;6141;49.092;8.516;2023-07-08T06:13:51;24.80;19.40
12156;DHT22;6141;49.092;8.516;2023-07-08T06:16:19;24.50;19.00
12156;DHT22;6141;49.092;8.516;2023-07-08T06:19:06;24.50;19.00
12156;DHT22;6141;49.092;8.516;2023-07-08T06:21:34;24.30;20.40
12156;DHT22;6141;49.092;8.516;2023-07-08T06:24:02;24.30;20.10
12156;DHT22;6141;49.092;8.516;2023-07-08T06:26:30;24.30;20.00
12156;DHT22;6141;49.092;8.516;2023-07-08T06:28:59;24.40;20.70
12156;DHT22;6141;49.092;8.516;2023-07-08T06:31:28;24.50;20.80
12156;DHT22;6141;49.092;8.516;2023-07-08T06:33:56;24.70;20.20
12156;DHT22;6141;49.092;8.516;2023-07-08T06:36:26;25.00;20.20
12156;DHT22;6141;49.092;8.516;2023-07-08T06:38:54;25.10;20.00
12156;DHT22;6141;49.092;8.516;2023-07-08T06:41:22;25.00;19.40
12156;DHT22;6141;49.092;8.516;2023-07-08T06:43:50;25.20;19.10
12156;DHT22;6141;49.092;8.516;2023-07-08T06:46:20;25.30;19.30
12156;DHT22;6141;49.092;8.516;2023-07-08T06:48:48;25.30;19.10
12156;DHT22;6141;49.092;8.516;2023-07-08T06:51:16;25.20;19.50
12156;DHT22;6141;49.092;8.516;2023-07-08T06:53:46;25.30;19.10
12156;DHT22;6141;49.092;8.516;2023-07-08T06:56:14;25.10;20.70
12156;DHT22;6141;49.092;8.516;2023-07-08T06:58:42;25.30;21.00
12156;DHT22;6141;49.092;8.516;2023-07-08T07:01:10;25.10;21.00
12156;DHT22;6141;49.092;8.516;2023-07-08T07:03:39;25.30;20.90
12156;DHT22;6141;49.092;8.516;2023-07-08T07:06:07;25.30;21.80
12156;DHT22;6141;49.092;8.516;2023-07-08T07:08:35;25.30;21.40
12156;DHT22;6141;49.092;8.516;2023-07-08T07:11:04;25.30;21.90
12156;DHT22;6141;49.092;8.516;2023-07-08T07:13:32;25.40;23.00
12156;DHT22;6141;49.092;8.516;2023-07-08T07:16:00;25.50;22.30
12156;DHT22;6141;49.092;8.516;2023-07-08T07:18:32;25.50;22.20
12156;DHT22;6141;49.092;8.516;2023-07-08T07:21:00;25.60;22.50
12156;DHT22;6141;49.092;8.516;2023-07-08T07:23:28;25.70;21.60
12156;DHT22;6141;49.092;8.516;2023-07-08T07:25:56;25.90;22.30
12156;DHT22;6141;49.092;8.516;2023-07-08T07:28:26;26.10;22.60
12156;DHT22;6141;49.092;8.516;2023-07-08T07:30:58;26.20;22.20
12156;DHT22;6141;49.092;8.516;2023-07-08T07:33:27;26.10;22.40
12156;DHT22;6141;49.092;8.516;2023-07-08T07:35:55;25.70;23.20
12156;DHT22;6141;49.092;8.516;2023-07-08T07:38:24;25.40;23.10
12156;DHT22;6141;49.092;8.516;2023-07-08T07:40:56;25.50;23.90
12156;DHT22;6141;49.092;8.516;2023-07-08T07:43:28;25.60;24.10
12156;DHT22;6141;49.092;8.516;2023-07-08T07:45:56;25.50;24.30
12156;DHT22;6141;49.092;8.516;2023-07-08T07:48:24;25.40;24.60
12156;DHT22;6141;49.092;8.516;2023-07-08T07:50:52;25.50;24.90
12156;DHT22;6141;49.092;8.516;2023-07-08T07:53:20;25.10;25.50
12156;DHT22;6141;49.092;8.516;2023-07-08T07:55:55;25.20;25.70
12156;DHT22;6141;49.092;8.516;2023-07-08T07:58:23;25.60;25.70
12156;DHT22;6141;49.092;8.516;2023-07-08T08:00:53;25.90;25.20
12156;DHT22;6141;49.092;8.516;2023-07-08T08:03:22;26.10;25.40
12156;DHT22;6141;49.092;8.516;2023-07-08T08:05:50;25.90;24.20
12156;DHT22;6141;49.092;8.516;2023-07-08T08:08:19;26.10;25.20
12156;DHT22;6141;49.092;8.516;2023-07-08T08:10:49;26.20;24.80
12156;DHT22;6141;49.092;8.516;2023-07-08T08:13:17;26.00;24.00
12156;DHT22;6141;49.092;8.516;2023-07-08T08:15:45;25.90;25.10
12156;DHT22;6141;49.092;8.516;2023-07-08T08:18:14;26.10;24.60
12156;DHT22;6141;49.092;8.516;2023-07-08T08:20:42;26.30;26.00
12156;DHT22;6141;49.092;8.516;2023-07-08T08:23:10;26.60;23.70
12156;DHT22;6141;49.092;8.516;2023-07-08T08:25:38;26.70;23.80
12156;DHT22;6141;49.092;8.516;2023-07-08T08:28:06;26.90;23.90
12156;DHT22;6141;49.092;8.516;2023-07-08T08:30:34;27.30;24.20
12156;DHT22;6141;49.092;8.516;2023-07-08T08:33:03;27.40;24.20
12156;DHT22;6141;49.092;8.516;2023-07-08T08:35:32;27.40;24.20
12156;DHT22;6141;49.092;8.516;2023-07-08T08:38:00;27.40;22.60
12156;DHT22;6141;49.092;8.516;2023-07-08T08:40:31;27.50;20.00
12156;DHT22;6141;49.092;8.516;2023-07-08T08:43:02;27.60;19.60
12156;DHT22;6141;49.092;8.516;2023-07-08T08:45:35;27.50;19.10
12156;DHT22;6141;49.092;8.516;2023-07-08T08:48:13;27.60;18.70
12156;DHT22;6141;49.092;8.516;2023-07-08T08:50:49;27.80;19.00
12156;DHT22;6141;49.092;8.516;2023-07-08T08:53:20;27.90;17.50
12156;DHT22;6141;49.092;8.516;2023-07-08T08:55:54;28.20;17.40
12156;DHT22;6141;49.092;8.516;2023-07-08T08:58:30;28.20;14.90
12156;DHT22;6141;49.092;8.516;2023-07-08T09:01:02;28.10;15.90
12156;DHT22;6141;49.092;8.516;2023-07-08T09:03:37;28.10;13.80
12156;DHT22;6141;49.092;8.516;2023-07-08T09:06:15;28.30;15.40
12156;DHT22;6141;49.092;8.516;2023-07-08T09:08:45;28.40;15.90
12156;DHT22;6141;49.092;8.516;2023-07-08T09:11:21;28.50;14.70
12156;DHT22;6141;49.092;8.516;2023-07-08T09:13:51;28.60;14.60
12156;DHT22;6141;49.092;8.516;2023-07-08T09:16:26;28.60;14.00
12156;DHT22;6141;49.092;8.516;2023-07-08T09:18:59;28.70;15.00
12156;DHT22;6141;49.092;8.516;2023-07-08T09:21:33;28.70;14.10
12156;DHT22;6141;49.092;8.516;2023-07-08T09:24:10;28.90;13.50
12156;DHT22;6141;49.092;8.516;2023-07-08T09:26:41;28.80;13.20
12156;DHT22;6141;49.092;8.516;2023-07-08T09:29:09;28.80;13.10
12156;DHT22;6141;49.092;8.516;2023-07-08T09:31:39;28.80;13.60
12156;DHT22;6141;49.092;8.516;2023-07-08T09:34:11;28.90;14.30
12156;DHT22;6141;49.092;8.516;2023-07-08T09:36:43;29.10;12.00
12156;DHT22;6141;49.092;8.516;2023-07-08T09:39:13;29.20;11.60
12156;DHT22;6141;49.092;8.516;2023-07-08T09:41:43;29.40;11.70
12156;DHT22;6141;49.092;8.516;2023-07-08T09:44:19;29.50;12.00
12156;DHT22;6141;49.092;8.516;2023-07-08T09:46:50;29.70;11.60
12156;DHT22;6141;49.092;8.516;2023-07-08T09:49:21;29.60;10.80
12156;DHT22;6141;49.092;8.516;2023-07-08T09:51:52;29.50;10.60
12156;DHT22;6141;49.092;8.516;2023-07-08T09:54:22;29.60;11.60
12156;DHT22;6141;49.092;8.516;2023-07-08T09:57:02;29.70;11.10
12156;DHT22;6141;49.092;8.516;2023-07-08T09:59:33;29.70;12.60
12156;DHT22;6141;49.092;8.516;2023-07-08T10:02:25;29.70;12.80
12156;DHT22;6141;49.092;8.516;2023-07-08T10:04:56;29.90;12.90
12156;DHT22;6141;49.092;8.516;2023-07-08T10:07:28;29.90;13.10
12156;DHT22;6141;49.092;8.516;2023-07-08T10:10:00;30.10;12.20
12156;DHT22;6141;49.092;8.516;2023-07-08T10:12:30;29.90;11.50
12156;DHT22;6141;49.092;8.516;2023-07-08T10:15:01;30.30;12.00
12156;DHT22;6141;49.092;8.516;2023-07-08T10:17:31;30.10;10.90
12156;DHT22;6141;49.092;8.516;2023-07-08T10:20:00;30.10;9.90
12156;DHT22;6141;49.092;8.516;2023-07-08T10:22:38;30.00;10.70
12156;DHT22;6141;49.092;8.516;2023-07-08T10:25:16;29.90;10.70
12156;DHT22;6141;49.092;8.516;2023-07-08T10:27:51;29.90;10.70
12156;DHT22;6141;49.092;8.516;2023-07-08T10:30:23;29.90;10.60
12156;DHT22;6141;49.092;8.516;2023-07-08T10:33:13;30.00;11.90
12156;DHT22;6141;49.092;8.516;2023-07-08T10:35:52;29.90;11.60
12156;DHT22;6141;49.092;8.516;2023-07-08T10:38:40;30.20;11.30
12156;DHT22;6141;49.092;8.516;2023-07-08T10:41:21;30.50;11.00
12156;DHT22;6141;49.092;8.516;2023-07-08T10:43:59;30.70;11.10
12156;DHT22;6141;49.092;8.516;2023-07-08T10:46:38;30.70;10.30
12156;DHT22;6141;49.092;8.516;2023-07-08T10:49:31;30.80;10.40
12156;DHT22;6141;49.092;8.516;2023-07-08T10:52:14;30.90;11.10
12156;DHT22;6141;49.092;8.516;2023-07-08T10:54:58;30.90;9.80
12156;DHT22;6141;49.092;8.516;2023-07-08T10:57:41;30.70;10.40
12156;DHT22;6141;49.092;8.516;2023-07-08T11:00:22;30.70;11.40
12156;DHT22;6141;49.092;8.516;2023-07-08T11:03:10;30.70;9.70
12156;DHT22;6141;49.092;8.516;2023-07-08T11:05:45;30.90;11.50
12156;DHT22;6141;49.092;8.516;2023-07-08T11:08:18;31.00;11.40
12156;DHT22;6141;49.092;8.516;2023-07-08T11:10:52;31.20;10.00
12156;DHT22;6141;49.092;8.516;2023-07-08T11:13:44;31.20;10.90
12156;DHT22;6141;49.092;8.516;2023-07-08T11:16:17;31.20;8.90
12156;DHT22;6141;49.092;8.516;2023-07-08T11:18:52;31.10;9.90
12156;DHT22;6141;49.092;8.516;2023-07-08T11:21:24;31.00;10.40
12156;DHT22;6141;49.092;8.516;2023-07-08T11:23:58;31.00;11.60
12156;DHT22;6141;49.092;8.516;2023-07-08T11:26:32;31.10;10.40
12156;DHT22;6141;49.092;8.516;2023-07-08T11:29:02;31.20;10.20
12156;DHT22;6141;49.092;8.516;2023-07-08T11:31:32;31.10;9.90
12156;DHT22;6141;49.092;8.516;2023-07-08T11:34:02;31.00;10.30
12156;DHT22;6141;49.092;8.516;2023-07-08T11:36:31;31.20;10.80
12156;DHT22;6141;49.092;8.516;2023-07-08T11:39:01;31.20;10.00
12156;DHT22;6141;49.092;8.516;2023-07-08T11:41:32;31.10;9.90
12156;DHT22;6141;49.092;8.516;2023-07-08T11:44:03;31.00;9.90
12156;DHT22;6141;49.092;8.516;2023-07-08T11:46:33;31.20;9.30
12156;DHT22;6141;49.092;8.516;2023-07-08T11:49:04;31.20;9.90
12156;DHT22;6141;49.092;8.516;2023-07-08T11:51:35;31.20;10.00
12156;DHT22;6141;49.092;8.516;2023-07-08T11:54:12;31.30;10.10
12156;DHT22;6141;49.092;8.516;2023-07-08T11:56:50;31.30;10.00
12156;DHT22;6141;49.092;8.516;2023-07-08T11:59:26;31.40;10.10
12156;DHT22;6141;49.092;8.516;2023-07-08T12:02:01;31.60;10.20
12156;DHT22;6141;49.092;8.516;2023-07-08T12:04:32;31.70;11.80
12156;DHT22;6141;49.092;8.516;2023-07-08T12:07:12;31.90;11.30
12156;DHT22;6141;49.092;8.516;2023-07-08T12:09:48;31.80;9.90
12156;DHT22;6141;49.092;8.516;2023-07-08T12:12:22;31.80;10.40
12156;DHT22;6141;49.092;8.516;2023-07-08T12:14:55;31.60;10.30
12156;DHT22;6141;49.092;8.516;2023-07-08T12:17:26;31.70;10.30
12156;DHT22;6141;49.092;8.516;2023-07-08T12:19:55;31.80;9.90
12156;DHT22;6141;49.092;8.516;2023-07-08T12:22:25;31.80;10.40
12156;DHT22;6141;49.092;8.516;2023-07-08T12:24:53;31.90;9.80
12156;DHT22;6141;49.092;8.516;2023-07-08T12:27:23;31.90;12.20
12156;DHT22;6141;49.092;8.516;2023-07-08T12:29:51;31.80;10.40
12156;DHT22;6141;49.092;8.516;2023-07-08T12:32:19;32.10;12.50
12156;DHT22;6141;49.092;8.516;2023-07-08T12:34:53;32.50;10.80
12156;DHT22;6141;49.092;8.516;2023-07-08T12:37:22;32.50;7.90
12156;DHT22;6141;49.092;8.516;2023-07-08T12:39:55;32.30;8.60
12156;DHT22;6141;49.092;8.516;2023-07-08T12:42:24;32.50;9.40
12156;DHT22;6141;49.092;8.516;2023-07-08T12:44:52;32.80;8.60
12156;DHT22;6141;49.092;8.516;2023-07-08T12:47:20;32.60;9.10
12156;DHT22;6141;49.092;8.516;2023-07-08T12:49:49;32.50;9.70
12156;DHT22;6141;49.092;8.516;2023-07-08T12:52:21;32.70;8.80
12156;DHT22;6141;49.092;8.516;2023-07-08T12:54:50;32.70;7.90
12156;DHT22;6141;49.092;8.516;2023-07-08T12:57:18;32.80;7.70
12156;DHT22;6141;49.092;8.516;2023-07-08T12:59:48;33.00;7.20
12156;DHT22;6141;49.092;8.516;2023-07-08T13:02:18;33.20;7.80
12156;DHT22;6141;49.092;8.516;2023-07-08T13:04:55;33.30;7.30
12156;DHT22;6141;49.092;8.516;2023-07-08T13:07:32;33.40;7.50
12156;DHT22;6141;49.092;8.516;2023-07-08T13:10:03;33.60;8.70
12156;DHT22;6141;49.092;8.516;2023-07-08T13:12:34;33.60;6.80
12156;DHT22;6141;49.092;8.516;2023-07-08T13:15:11;33.90;7.20
12156;DHT22;6141;49.092;8.516;2023-07-08T13:17:42;34.10;6.00
12156;DHT22;6141;49.092;8.516;2023-07-08T13:20:13;34.00;5.70
12156;DHT22;6141;49.092;8.516;2023-07-08T13:22:46;33.80;4.40
12156;DHT22;6141;49.092;8.516;2023-07-08T13:25:17;33.60;4.90
12156;DHT22;6141;49.092;8.516;2023-07-08T13:27:56;33.80;6.70
12156;DHT22;6141;49.092;8.516;2023-07-08T13:30:28;34.00;6.00
12156;DHT22;6141;49.092;8.516;2023-07-08T13:32:58;34.10;4.60
12156;DHT22;6141;49.092;8.516;2023-07-08T13:35:36;34.00;6.00
12156;DHT22;6141;49.092;8.516;2023-07-08T13:38:05;34.20;6.10
12156;DHT22;6141;49.092;8.516;2023-07-08T13:40:33;34.10;6.00
12156;DHT22;6141;49.092;8.516;2023-07-08T13:43:01;33.60;4.30
12156;DHT22;6141;49.092;8.516;2023-07-08T13:45:32;33.70;7.00
12156;DHT22;6141;49.092;8.516;2023-07-08T13:48:11;34.00;6.00
12156;DHT22;6141;49.092;8.516;2023-07-08T13:50:45;34.10;7.10
12156;DHT22;6141;49.092;8.516;2023-07-08T13:53:20;33.60;7.70
12156;DHT22;6141;49.092;8.516;2023-07-08T13:55:55;33.70;8.00
12156;DHT22;6141;49.092;8.516;2023-07-08T13:58:27;33.90;5.90
12156;DHT22;6141;49.092;8.516;2023-07-08T14:00:57;33.90;5.90
12156;DHT22;6141;49.092;8.516;2023-07-08T14:03:26;34.20;6.90
12156;DHT22;6141;49.092;8.516;2023-07-08T14:05:55;34.30;6.10
12156;DHT22;6141;49.092;8.516;2023-07-08T14:08:23;34.30;7.00
12156;DHT22;6141;49.092;8.516;2023-07-08T14:10:52;34.00;5.80
12156;DHT22;6141;49.092;8.516;2023-07-08T14:13:20;33.90;5.90
12156;DHT22;6141;49.092;8.516;2023-07-08T14:15:48;34.00;8.60
12156;DHT22;6141;49.092;8.516;2023-07-08T14:18:17;34.10;7.70
12156;DHT22;6141;49.092;8.516;2023-07-08T14:20:45;34.10;6.30
12156;DHT22;6141;49.092;8.516;2023-07-08T14:23:13;33.80;5.80
12156;DHT22;6141;49.092;8.516;2023-07-08T14:25:41;34.00;7.50
12156;DHT22;6141;49.092;8.516;2023-07-08T14:28:09;33.80;7.20
12156;DHT22;6141;49.092;8.516;2023-07-08T14:30:41;33.80;5.90
12156;DHT22;6141;49.092;8.516;2023-07-08T14:33:10;34.10;6.00
12156;DHT22;6141;49.092;8.516;2023-07-08T14:35:40;34.10;6.20
12156;DHT22;6141;49.092;8.516;2023-07-08T14:38:10;34.10;7.20
12156;DHT22;6141;49.092;8.516;2023-07-08T14:40:41;34.20;7.90
12156;DHT22;6141;49.092;8.516;2023-07-08T14:43:15;34.00;6.00
12156;DHT22;6141;49.092;8.516;2023-07-08T14:45:47;34.20;6.70
12156;DHT22;6141;49.092;8.516;2023-07-08T14:48:16;33.80;7.50
12156;DHT22;6141;49.092;8.516;2023-07-08T14:50:45;33.60;6.60
12156;DHT22;6141;49.092;8.516;2023-07-08T14:53:14;33.80;5.60
12156;DHT22;6141;49.092;8.516;2023-07-08T14:55:44;33.70;7.30
12156;DHT22;6141;49.092;8.516;2023-07-08T14:58:19;33.60;6.50
12156;DHT22;6141;49.092;8.516;2023-07-08T15:00:49;33.40;7.20
12156;DHT22;6141;49.092;8.516;2023-07-08T15:03:18;33.50;6.80
12156;DHT22;6141;49.092;8.516;2023-07-08T15:05:48;33.50;7.90
12156;DHT22;6141;49.092;8.516;2023-07-08T15:08:16;33.60;7.20
12156;DHT22;6141;49.092;8.516;2023-07-08T15:10:47;33.90;5.30
12156;DHT22;6141;49.092;8.516;2023-07-08T15:13:19;33.90;5.80
12156;DHT22;6141;49.092;8.516;2023-07-08T15:15:48;34.00;7.00
12156;DHT22;6141;49.092;8.516;2023-07-08T15:18:18;33.90;5.90
12156;DHT22;6141;49.092;8.516;2023-07-08T15:20:47;34.10;7.30
12156;DHT22;6141;49.092;8.516;2023-07-08T15:23:16;34.10;6.00
12156;DHT22;6141;49.092;8.516;2023-07-08T15:25:46;33.90;5.20
12156;DHT22;6141;49.092;8.516;2023-07-08T15:28:18;33.80;5.80
12156;DHT22;6141;49.092;8.516;2023-07-08T15:30:47;33.90;5.90
12156;DHT22;6141;49.092;8.516;2023-07-08T15:33:16;34.00;5.30
12156;DHT22;6141;49.092;8.516;2023-07-08T15:35:44;33.90;5.90
12156;DHT22;6141;49.092;8.516;2023-07-08T15:38:13;34.10;6.00
12156;DHT22;6141;49.092;8.516;2023-07-08T15:40:41;34.30;5.30
12156;DHT22;6141;49.092;8.516;2023-07-08T15:43:12;34.70;4.10
12156;DHT22;6141;49.092;8.516;2023-07-08T15:45:41;34.50;6.20
12156;DHT22;6141;49.092;8.516;2023-07-08T15:48:13;34.20;6.10
12156;DHT22;6141;49.092;8.516;2023-07-08T15:50:42;34.00;5.50
12156;DHT22;6141;49.092;8.516;2023-07-08T15:53:10;34.10;5.20
12156;DHT22;6141;49.092;8.516;2023-07-08T15:55:41;34.30;6.10
12156;DHT22;6141;49.092;8.516;2023-07-08T15:58:12;34.20;6.10
12156;DHT22;6141;49.092;8.516;2023-07-08T16:00:42;34.00;5.70
12156;DHT22;6141;49.092;8.516;2023-07-08T16:03:25;33.90;5.90
12156;DHT22;6141;49.092;8.516;2023-07-08T16:05:54;34.00;7.80
12156;DHT22;6141;49.092;8.516;2023-07-08T16:08:23;33.80;8.40
12156;DHT22;6141;49.092;8.516;2023-07-08T16:10:56;33.80;5.80
12156;DHT22;6141;49.092;8.516;2023-07-08T16:13:27;33.80;7.60